Time;durP1;ratioP1;P1;durP2;ratioP2;P2;SDS_P1;SDS_P2;PMS_P1;PMS_P2;Temp;Humidity;BMP_temperature;BMP_pressure;BME280_temperature;BME280_humidity;BME280_pressure;Samples;Min_cycle;Max_cycle;Signal;HPM_P1;HPM_P2
2022/03/11 00:00:14;;;;;;;;;;;23.30;38.90;;;;;;1620102;72;738;-68
2022/03/11 00:02:16;;;;;;;;;;;23.30;39.00;;;;;;1619772;72;706;-67
2022/03/11 00:04:18;;;;;;;;;;;23.30;38.90;;;;;;1617856;72;1132;-68
2022/03/11 00:06:20;;;;;;;;;;;23.30;38.90;;;;;;1620696;72;725;-67
2022/03/11 00:08:21;;;;;;;;;;;23.30;38.90;;;;;;1619522;72;744;-68
2022/03/11 00:10:23;;;;;;;;;;;23.30;38.90;;;;;;1617847;72;726;-68
2022/03/11 00:12:25;;;;;;;;;;;23.30;38.90;;;;;;1618498;72;651;-68
2022/03/11 00:14:27;;;;;;;;;;;23.30;38.90;;;;;;1620270;72;1150;-68
2022/03/11 00:16:29;;;;;;;;;;;23.30;38.90;;;;;;1619394;72;720;-68
2022/03/11 00:18:31;;;;;;;;;;;23.30;39.00;;;;;;1616339;72;1937;-68
2022/03/11 00:20:33;;;;;;;;;;;23.40;39.00;;;;;;1617833;72;695;-68
2022/03/11 00:22:35;;;;;;;;;;;23.30;39.00;;;;;;1620291;72;691;-68
2022/03/11 00:24:37;;;;;;;;;;;23.30;39.10;;;;;;1622676;72;1173;-69
2022/03/11 00:26:38;;;;;;;;;;;23.30;39.10;;;;;;1617695;72;721;-70
2022/03/11 00:28:40;;;;;;;;;;;23.30;39.10;;;;;;1617957;72;674;-66
2022/03/11 00:30:43;;;;;;;;;;;23.30;39.10;;;;;;1619665;72;736;-67
2022/03/11 00:32:45;;;;;;;;;;;23.30;39.10;;;;;;1621074;72;758;-65
2022/03/11 00:34:47;;;;;;;;;;;23.30;39.20;;;;;;1619991;72;1112;-69
2022/03/11 00:36:49;;;;;;;;;;;23.30;39.20;;;;;;1615948;72;1934;-67
2022/03/11 00:38:51;;;;;;;;;;;23.30;39.10;;;;;;1615663;72;709;-66
2022/03/11 00:40:56;;;;;;;;;;;23.30;39.20;;;;;;1616464;72;758;-67
2022/03/11 00:42:56;;;;;;;;;;;23.30;39.10;;;;;;1623025;72;1006;-67
2022/03/11 00:44:58;;;;;;;;;;;23.30;39.20;;;;;;1621079;72;1124;-67
2022/03/11 00:47:00;;;;;;;;;;;23.30;39.20;;;;;;1618219;73;689;-68
2022/03/11 00:49:02;;;;;;;;;;;23.30;39.10;;;;;;1621052;72;715;-69
2022/03/11 00:51:04;;;;;;;;;;;23.30;39.20;;;;;;1617592;72;799;-68
2022/03/11 00:53:05;;;;;;;;;;;23.30;39.20;;;;;;1618575;72;735;-68
2022/03/11 00:55:08;;;;;;;;;;;23.30;39.30;;;;;;1620577;72;1142;-68
2022/03/11 00:57:10;;;;;;;;;;;23.30;39.20;;;;;;1619531;72;1921;-68
2022/03/11 00:59:12;;;;;;;;;;;23.30;39.20;;;;;;1619339;72;747;-66
2022/03/11 01:01:14;;;;;;;;;;;23.30;39.30;;;;;;1613483;72;649;-67
2022/03/11 01:03:16;;;;;;;;;;;23.30;39.30;;;;;;1620755;72;684;-67
2022/03/11 01:05:18;;;;;;;;;;;23.30;39.30;;;;;;1629707;72;1143;-67
2022/03/11 01:07:19;;;;;;;;;;;23.30;39.30;;;;;;1618418;72;705;-68
2022/03/11 01:09:21;;;;;;;;;;;23.30;39.30;;;;;;1618398;72;675;-67
2022/03/11 01:11:23;;;;;;;;;;;23.30;39.30;;;;;;1619470;72;717;-68
2022/03/11 01:13:25;;;;;;;;;;;23.30;39.30;;;;;;1620136;72;694;-68
2022/03/11 01:15:27;;;;;;;;;;;23.30;39.30;;;;;;1620220;72;1106;-67
2022/03/11 01:17:29;;;;;;;;;;;23.30;39.40;;;;;;1617775;72;1925;-67
2022/03/11 01:19:31;;;;;;;;;;;23.30;39.40;;;;;;1621019;72;768;-67
2022/03/11 01:21:33;;;;;;;;;;;23.40;39.40;;;;;;1619265;72;697;-67
2022/03/11 01:23:34;;;;;;;;;;;23.30;39.40;;;;;;1619197;72;709;-67
2022/03/11 01:25:36;;;;;;;;;;;23.30;39.40;;;;;;1620050;72;1135;-68
2022/03/11 01:27:38;;;;;;;;;;;23.30;39.40;;;;;;1619505;72;802;-68
2022/03/11 01:29:40;;;;;;;;;;;23.30;39.40;;;;;;1622980;72;779;-66
2022/03/11 01:31:42;;;;;;;;;;;23.30;39.40;;;;;;1627020;72;730;-67
2022/03/11 01:33:44;;;;;;;;;;;23.30;39.40;;;;;;1582281;72;2111;-69
2022/03/11 01:35:46;;;;;;;;;;;23.30;39.40;;;;;;1550272;76;729;-69
2022/03/11 01:37:48;;;;;;;;;;;23.30;39.40;;;;;;1551019;76;1947;-70
2022/03/11 01:39:50;;;;;;;;;;;23.30;39.40;;;;;;1553705;76;779;-69
2022/03/11 01:41:52;;;;;;;;;;;23.40;39.40;;;;;;1553290;76;809;-71
2022/03/11 01:43:54;;;;;;;;;;;23.30;39.40;;;;;;1553354;75;1209;-69
2022/03/11 01:45:57;;;;;;;;;;;23.30;39.50;;;;;;1559396;75;712;-69
2022/03/11 01:47:58;;;;;;;;;;;23.40;39.40;;;;;;1561471;75;740;-69
2022/03/11 01:50:00;;;;;;;;;;;23.30;39.40;;;;;;1559277;75;788;-69
2022/03/11 01:52:02;;;;;;;;;;;23.30;39.50;;;;;;1556058;75;774;-69
2022/03/11 01:54:04;;;;;;;;;;;23.40;39.40;;;;;;1560235;75;1179;-69
2022/03/11 01:56:06;;;;;;;;;;;23.40;39.40;;;;;;1559058;75;779;-69
2022/03/11 01:58:08;;;;;;;;;;;23.30;39.50;;;;;;1559307;75;1942;-72
2022/03/11 02:00:10;;;;;;;;;;;23.50;39.60;;;;;;1561414;75;745;-69
2022/03/11 02:02:12;;;;;;;;;;;23.30;39.50;;;;;;1561835;75;821;-71
2022/03/11 02:04:14;;;;;;;;;;;23.40;39.50;;;;;;1559373;75;1133;-69
2022/03/11 02:06:16;;;;;;;;;;;23.30;39.50;;;;;;1557572;75;779;-67
2022/03/11 02:08:18;;;;;;;;;;;23.40;39.50;;;;;;1560235;75;709;-68
2022/03/11 02:10:20;;;;;;;;;;;23.30;39.50;;;;;;1557470;75;776;-68
2022/03/11 02:12:29;;;;;;;;;;;23.30;39.50;;;;;;1558994;75;723;-68
2022/03/11 02:14:31;;;;;;;;;;;23.40;39.50;;;;;;1558925;75;1094;-68
2022/03/11 02:16:33;;;;;;;;;;;23.30;39.50;;;;;;1556961;75;873;-70
2022/03/11 02:18:35;;;;;;;;;;;23.40;39.60;;;;;;1559592;75;1918;-71
2022/03/11 02:20:37;;;;;;;;;;;23.30;39.60;;;;;;1560709;75;733;-67
2022/03/11 02:22:40;;;;;;;;;;;23.30;39.60;;;;;;1557632;75;1199;-66
2022/03/11 02:24:41;;;;;;;;;;;23.30;39.80;;;;;;1559402;75;724;-70
2022/03/11 02:26:43;;;;;;;;;;;23.40;39.60;;;;;;1559960;75;713;-66
2022/03/11 02:28:45;;;;;;;;;;;23.40;39.60;;;;;;1558314;75;739;-67
2022/03/11 02:30:48;;;;;;;;;;;23.40;39.60;;;;;;1559275;75;765;-66
2022/03/11 02:32:50;;;;;;;;;;;23.40;39.50;;;;;;1556573;75;1149;-67
2022/03/11 02:34:52;;;;;;;;;;;23.30;39.50;;;;;;1559168;75;805;-68
2022/03/11 02:36:54;;;;;;;;;;;23.30;39.50;;;;;;1556941;76;737;-66
2022/03/11 02:38:56;;;;;;;;;;;23.30;39.50;;;;;;1537305;77;1936;-66
2022/03/11 02:40:58;;;;;;;;;;;23.30;39.50;;;;;;1546660;76;656;-66
2022/03/11 02:42:59;;;;;;;;;;;23.30;39.50;;;;;;1537145;76;1186;-66
2022/03/11 02:45:02;;;;;;;;;;;23.30;39.50;;;;;;1537254;77;773;-68
2022/03/11 02:47:04;;;;;;;;;;;23.30;39.50;;;;;;1537178;77;652;-66
2022/03/11 02:49:06;;;;;;;;;;;23.30;39.50;;;;;;1537250;77;816;-67
2022/03/11 02:51:08;;;;;;;;;;;23.30;39.50;;;;;;1560055;76;723;-67
2022/03/11 02:53:10;;;;;;;;;;;23.30;39.60;;;;;;1563673;76;1121;-68
2022/03/11 02:55:11;;;;;;;;;;;23.20;39.50;;;;;;1563010;76;743;-70
2022/03/11 02:57:13;;;;;;;;;;;23.30;39.60;;;;;;1563804;76;781;-67
2022/03/11 02:59:15;;;;;;;;;;;23.30;39.50;;;;;;1563570;76;1958;-68
2022/03/11 03:01:17;;;;;;;;;;;23.30;39.60;;;;;;1563797;76;727;-68
2022/03/11 03:03:19;;;;;;;;;;;23.20;39.50;;;;;;1563577;76;1169;-68
2022/03/11 03:05:21;;;;;;;;;;;23.20;39.40;;;;;;1563041;76;802;-67
2022/03/11 03:07:23;;;;;;;;;;;23.30;39.50;;;;;;1563807;76;588;-69
2022/03/11 03:09:24;;;;;;;;;;;23.20;39.40;;;;;;1563592;76;775;-69
2022/03/11 03:11:26;;;;;;;;;;;23.30;39.50;;;;;;1563733;76;776;-70
2022/03/11 03:13:28;;;;;;;;;;;23.20;39.40;;;;;;1563246;76;1129;-70
2022/03/11 03:15:32;;;;;;;;;;;23.20;39.50;;;;;;1563657;76;741;-67
2022/03/11 03:17:34;;;;;;;;;;;23.20;39.40;;;;;;1533980;77;725;-67
2022/03/11 03:19:36;;;;;;;;;;;23.20;39.40;;;;;;1536612;77;1924;-67
2022/03/11 03:21:38;;;;;;;;;;;23.20;39.50;;;;;;1519244;78;657;-68
2022/03/11 03:23:40;;;;;;;;;;;23.20;39.50;;;;;;1533898;77;1127;-68
2022/03/11 03:25:42;;;;;;;;;;;23.30;39.60;;;;;;1507203;79;737;-67
2022/03/11 03:27:44;;;;;;;;;;;23.20;39.70;;;;;;1534049;77;811;-67
2022/03/11 03:29:46;;;;;;;;;;;23.30;39.70;;;;;;1521734;78;716;-67
2022/03/11 03:31:48;;;;;;;;;;;23.30;39.70;;;;;;1521889;78;653;-68
2022/03/11 03:33:50;;;;;;;;;;;23.30;39.70;;;;;;1521693;78;1131;-70
2022/03/11 03:35:52;;;;;;;;;;;23.30;39.80;;;;;;1521695;78;776;-68
2022/03/11 03:37:54;;;;;;;;;;;23.30;39.80;;;;;;1521809;78;1946;-67
2022/03/11 03:39:56;;;;;;;;;;;23.40;39.70;;;;;;1521917;78;728;-67
2022/03/11 03:41:57;;;;;;;;;;;23.30;39.80;;;;;;1508018;77;828;-65
2022/03/11 03:43:59;;;;;;;;;;;23.40;39.70;;;;;;1496878;79;1139;-65
2022/03/11 03:46:01;;;;;;;;;;;23.50;39.70;;;;;;1496885;79;713;-65
2022/03/11 03:48:03;;;;;;;;;;;23.40;39.60;;;;;;1497008;78;715;-67
2022/03/11 03:50:06;;;;;;;;;;;23.50;39.60;;;;;;1496980;79;809;-66
2022/03/11 03:52:12;;;;;;;;;;;23.60;39.60;;;;;;1503084;78;682;-65
2022/03/11 03:54:11;;;;;;;;;;;23.60;39.40;;;;;;1532018;77;1476;-71
2022/03/11 03:56:13;;;;;;;;;;;23.60;39.40;;;;;;1517749;77;723;-70
2022/03/11 03:58:15;;;;;;;;;;;23.60;39.50;;;;;;1514287;77;1923;-68
2022/03/11 04:00:17;;;;;;;;;;;23.70;39.60;;;;;;1516755;77;745;-68
2022/03/11 04:02:19;;;;;;;;;;;23.70;39.70;;;;;;1511796;77;713;-67
2022/03/11 04:04:21;;;;;;;;;;;23.70;39.60;;;;;;1514178;77;1151;-70
2022/03/11 04:06:23;;;;;;;;;;;23.80;39.70;;;;;;1513811;77;701;-70
2022/03/11 04:08:25;;;;;;;;;;;23.80;39.80;;;;;;1505933;77;744;-69
2022/03/11 04:10:27;;;;;;;;;;;23.70;39.90;;;;;;1518611;77;661;-69
2022/03/11 04:12:29;;;;;;;;;;;23.70;39.90;;;;;;1514619;77;689;-70
2022/03/11 04:14:31;;;;;;;;;;;23.70;39.80;;;;;;1515064;77;1084;-69
2022/03/11 04:16:33;;;;;;;;;;;23.70;39.90;;;;;;1512345;77;704;-71
2022/03/11 04:18:34;;;;;;;;;;;23.80;40.00;;;;;;1516631;77;1948;-70
2022/03/11 04:20:36;;;;;;;;;;;23.80;39.90;;;;;;1516111;77;823;-68
2022/03/11 04:22:43;;;;;;;;;;;23.80;40.00;;;;;;1506874;78;826;-68
2022/03/11 04:24:45;;;;;;;;;;;23.70;40.00;;;;;;1506222;78;1057;-69
2022/03/11 04:26:46;;;;;;;;;;;23.70;39.90;;;;;;1533958;77;775;-69
2022/03/11 04:28:48;;;;;;;;;;;23.80;39.90;;;;;;1507454;79;755;-69
2022/03/11 04:30:50;;;;;;;;;;;23.70;39.90;;;;;;1507311;79;714;-68
2022/03/11 04:32:52;;;;;;;;;;;23.80;40.00;;;;;;1506536;79;1166;-69
2022/03/11 04:34:54;;;;;;;;;;;23.80;40.00;;;;;;1536675;77;781;-69
2022/03/11 04:36:56;;;;;;;;;;;23.70;40.00;;;;;;1506598;77;685;-71
2022/03/11 04:38:58;;;;;;;;;;;23.80;40.00;;;;;;1531516;77;1913;-72
2022/03/11 04:41:00;;;;;;;;;;;23.70;40.00;;;;;;1500906;79;791;-70
2022/03/11 04:43:02;;;;;;;;;;;23.80;40.10;;;;;;1512414;77;1127;-71
2022/03/11 04:45:04;;;;;;;;;;;23.80;40.00;;;;;;1512999;77;710;-70
2022/03/11 04:47:06;;;;;;;;;;;23.80;40.10;;;;;;1533891;77;796;-71
2022/03/11 04:49:08;;;;;;;;;;;23.90;40.10;;;;;;1534092;77;727;-70
2022/03/11 04:51:10;;;;;;;;;;;23.90;40.10;;;;;;1534203;77;739;-70
2022/03/11 04:53:12;;;;;;;;;;;23.90;40.00;;;;;;1533976;77;1163;-70
2022/03/11 04:55:16;;;;;;;;;;;23.90;40.00;;;;;;1533761;77;711;-70
2022/03/11 04:57:17;;;;;;;;;;;23.90;40.00;;;;;;1534041;77;1104;-70
2022/03/11 04:59:19;;;;;;;;;;;23.90;40.00;;;;;;1534040;77;1937;-73
2022/03/11 05:01:21;;;;;;;;;;;23.90;40.00;;;;;;1534144;77;756;-71
2022/03/11 05:03:23;;;;;;;;;;;23.90;40.00;;;;;;1521202;77;1204;-70
2022/03/11 05:05:25;;;;;;;;;;;23.90;40.00;;;;;;1511855;77;790;-70
2022/03/11 05:07:27;;;;;;;;;;;23.90;39.90;;;;;;1496770;79;807;-70
2022/03/11 05:09:29;;;;;;;;;;;23.90;39.90;;;;;;1496696;78;748;-70
2022/03/11 05:11:31;;;;;;;;;;;23.80;39.80;;;;;;1504266;78;670;-70
2022/03/11 05:13:33;;;;;;;;;;;23.90;40.00;;;;;;1521719;78;1129;-70
2022/03/11 05:15:38;;;;;;;;;;;23.90;40.20;;;;;;1521680;78;831;-71
2022/03/11 05:17:38;;;;;;;;;;;23.90;40.10;;;;;;1521617;78;1673;-72
2022/03/11 05:19:40;;;;;;;;;;;24.00;40.00;;;;;;1521439;78;1956;-70
2022/03/11 05:21:42;;;;;;;;;;;23.90;40.10;;;;;;1521809;78;673;-69
2022/03/11 05:23:44;;;;;;;;;;;23.90;40.20;;;;;;1521625;78;1119;-70
2022/03/11 05:25:46;;;;;;;;;;;23.90;40.20;;;;;;1518120;77;663;-68
2022/03/11 05:27:48;;;;;;;;;;;23.90;40.20;;;;;;1496817;79;795;-69
2022/03/11 05:29:50;;;;;;;;;;;23.90;40.20;;;;;;1496618;79;664;-68
2022/03/11 05:31:52;;;;;;;;;;;24.00;40.00;;;;;;1512842;77;832;-68
2022/03/11 05:33:54;;;;;;;;;;;24.00;39.70;;;;;;1506148;78;1129;-67
2022/03/11 05:35:56;;;;;;;;;;;24.10;39.70;;;;;;1508469;77;797;-68
2022/03/11 05:37:58;;;;;;;;;;;24.00;39.50;;;;;;1508411;77;841;-69
2022/03/11 05:39:59;;;;;;;;;;;24.10;39.50;;;;;;1521639;78;1940;-67
2022/03/11 05:42:01;;;;;;;;;;;24.10;39.60;;;;;;1512489;78;796;-68
2022/03/11 05:44:03;;;;;;;;;;;24.20;39.40;;;;;;1521732;77;1169;-69
2022/03/11 05:46:05;;;;;;;;;;;24.20;39.40;;;;;;1520475;77;713;-68
2022/03/11 05:48:07;;;;;;;;;;;24.10;39.30;;;;;;1514921;78;789;-68
2022/03/11 05:50:09;;;;;;;;;;;24.10;39.40;;;;;;1502893;78;660;-67
2022/03/11 05:52:11;;;;;;;;;;;24.10;39.50;;;;;;1521637;78;722;-67
2022/03/11 05:54:12;;;;;;;;;;;24.10;39.50;;;;;;1533428;77;1124;-71
2022/03/11 05:56:14;;;;;;;;;;;24.00;39.50;;;;;;1531544;76;780;-64
2022/03/11 05:58:16;;;;;;;;;;;24.00;39.60;;;;;;1529922;76;800;-68
2022/03/11 06:00:19;;;;;;;;;;;24.00;39.60;;;;;;1530137;76;1936;-67
2022/03/11 06:02:21;;;;;;;;;;;24.10;39.70;;;;;;1513505;76;734;-66
2022/03/11 06:04:23;;;;;;;;;;;24.20;39.40;;;;;;1504192;78;1146;-66
2022/03/11 06:06:25;;;;;;;;;;;24.20;39.40;;;;;;1511192;76;740;-66
2022/03/11 06:08:27;;;;;;;;;;;24.20;39.20;;;;;;1512076;78;799;-71
2022/03/11 06:10:28;;;;;;;;;;;24.30;39.20;;;;;;1522543;76;726;-67
2022/03/11 06:12:30;;;;;;;;;;;24.20;39.00;;;;;;1516765;76;723;-68
2022/03/11 06:14:32;;;;;;;;;;;24.20;39.00;;;;;;1517255;78;1090;-66
2022/03/11 06:16:34;;;;;;;;;;;24.20;38.90;;;;;;1554995;75;764;-67
2022/03/11 06:18:36;;;;;;;;;;;24.30;38.90;;;;;;1528053;75;754;-66
2022/03/11 06:20:38;;;;;;;;;;;24.30;39.00;;;;;;1520288;78;1940;-66
2022/03/11 06:22:47;;;;;;;;;;;24.30;38.90;;;;;;1524484;77;1125;-67
2022/03/11 06:24:49;;;;;;;;;;;24.30;38.90;;;;;;1521706;75;724;-67
2022/03/11 06:26:51;;;;;;;;;;;24.20;38.80;;;;;;1527794;77;733;-66
2022/03/11 06:28:53;;;;;;;;;;;24.30;38.90;;;;;;1536016;77;776;-68
2022/03/11 06:30:55;;;;;;;;;;;24.30;38.80;;;;;;1518501;78;1112;-67
2022/03/11 06:32:57;;;;;;;;;;;24.30;38.90;;;;;;1543179;76;1170;-68
2022/03/11 06:34:59;;;;;;;;;;;24.30;38.80;;;;;;1520404;76;784;-66
2022/03/11 06:37:01;;;;;;;;;;;24.30;38.80;;;;;;1515562;76;800;-66
2022/03/11 06:39:03;;;;;;;;;;;24.30;38.80;;;;;;1508661;77;1940;-67
2022/03/11 06:41:05;;;;;;;;;;;24.30;38.80;;;;;;1515139;77;887;-67
2022/03/11 06:43:06;;;;;;;;;;;24.30;38.70;;;;;;1514274;77;1149;-67
2022/03/11 06:45:09;;;;;;;;;;;24.30;38.70;;;;;;1521814;78;598;-66
2022/03/11 06:47:11;;;;;;;;;;;24.30;38.80;;;;;;1521661;78;730;-66
2022/03/11 06:49:12;;;;;;;;;;;24.30;38.70;;;;;;1533947;77;772;-66
2022/03/11 06:51:14;;;;;;;;;;;24.30;38.70;;;;;;1507327;79;787;-67
2022/03/11 06:53:18;;;;;;;;;;;24.20;38.60;;;;;;1507330;79;1238;-66
2022/03/11 06:55:20;;;;;;;;;;;24.20;38.60;;;;;;1498175;79;814;-66
2022/03/11 06:57:21;;;;;;;;;;;24.20;38.10;;;;;;1525545;76;731;-66
2022/03/11 06:59:23;;;;;;;;;;;24.10;38.10;;;;;;1531923;77;1937;-67
2022/03/11 07:01:25;;;;;;;;;;;24.00;38.00;;;;;;1518968;77;610;-66
2022/03/11 07:03:27;;;;;;;;;;;24.00;38.00;;;;;;1528743;77;1131;-71
2022/03/11 07:05:29;;;;;;;;;;;23.90;38.10;;;;;;1552626;75;755;-67
2022/03/11 07:07:33;;;;;;;;;;;23.90;38.10;;;;;;1530856;75;979;-66
2022/03/11 07:09:35;;;;;;;;;;;23.90;38.10;;;;;;1520272;77;724;-66
2022/03/11 07:11:37;;;;;;;;;;;23.90;38.10;;;;;;1522251;77;912;-67
2022/03/11 07:13:39;;;;;;;;;;;23.80;38.10;;;;;;1533461;77;1162;-66
2022/03/11 07:15:41;;;;;;;;;;;23.80;38.10;;;;;;1533488;77;728;-65
2022/03/11 07:17:43;;;;;;;;;;;23.80;38.10;;;;;;1532405;76;788;-70
2022/03/11 07:19:44;;;;;;;;;;;23.80;38.10;;;;;;1506613;76;1934;-68
2022/03/11 07:21:46;;;;;;;;;;;23.80;38.10;;;;;;1503121;77;756;-70
2022/03/11 07:23:54;;;;;;;;;;;23.90;38.30;;;;;;1532650;76;1158;-69
2022/03/11 07:25:52;;;;;;;;;;;23.90;38.10;;;;;;1515859;77;1622;-69
2022/03/11 07:27:54;;;;;;;;;;;23.80;38.00;;;;;;1519581;77;714;-69
2022/03/11 07:29:56;;;;;;;;;;;23.80;38.00;;;;;;1516993;77;766;-68
2022/03/11 07:31:58;;;;;;;;;;;24.00;38.00;;;;;;1514790;77;803;-68
2022/03/11 07:34:00;;;;;;;;;;;24.00;37.90;;;;;;1532737;74;224658;-64
2022/03/11 07:36:02;;;;;;;;;;;24.00;37.80;;;;;;1573407;74;704;-64
2022/03/11 07:38:04;;;;;;;;;;;24.00;37.80;;;;;;1573396;74;655;-64
2022/03/11 07:40:06;;;;;;;;;;;24.00;37.80;;;;;;1575073;74;1918;-64
2022/03/11 07:42:08;;;;;;;;;;;24.00;37.80;;;;;;1573652;74;776;-64
2022/03/11 07:44:10;;;;;;;;;;;24.00;37.80;;;;;;1580995;73;1182;-66
2022/03/11 07:46:13;;;;;;;;;;;24.10;37.80;;;;;;1586221;73;677;-64
2022/03/11 07:48:15;;;;;;;;;;;24.00;37.70;;;;;;1590734;73;722;-65
2022/03/11 07:50:17;;;;;;;;;;;24.00;37.70;;;;;;1595057;73;753;-67
2022/03/11 07:52:22;;;;;;;;;;;24.00;37.70;;;;;;1590412;73;717;-67
2022/03/11 07:54:23;;;;;;;;;;;24.10;37.80;;;;;;1591654;73;1159;-65
2022/03/11 07:56:24;;;;;;;;;;;24.00;37.70;;;;;;1590807;73;695;-66
2022/03/11 07:58:26;;;;;;;;;;;24.10;37.80;;;;;;1590946;73;803;-65
2022/03/11 08:00:28;;;;;;;;;;;24.00;37.70;;;;;;1594979;73;1937;-66
2022/03/11 08:02:30;;;;;;;;;;;24.10;37.80;;;;;;1594975;73;715;-68
2022/03/11 08:04:32;;;;;;;;;;;24.00;37.70;;;;;;1594115;73;1096;-65
2022/03/11 08:06:35;;;;;;;;;;;24.10;37.90;;;;;;1594971;73;736;-65
2022/03/11 08:08:37;;;;;;;;;;;24.10;37.90;;;;;;1590931;73;743;-65
2022/03/11 08:10:39;;;;;;;;;;;24.10;37.90;;;;;;1594913;73;795;-64
2022/03/11 08:12:41;;;;;;;;;;;24.10;37.90;;;;;;1590824;73;676;-64
2022/03/11 08:14:43;;;;;;;;;;;24.10;37.80;;;;;;1588723;73;1147;-66
2022/03/11 08:16:45;;;;;;;;;;;24.10;37.80;;;;;;1594937;73;697;-64
2022/03/11 08:18:47;;;;;;;;;;;24.10;37.80;;;;;;1590837;73;706;-65
2022/03/11 08:20:49;;;;;;;;;;;24.10;37.80;;;;;;1594759;73;1952;-65
2022/03/11 08:22:50;;;;;;;;;;;24.00;37.70;;;;;;1595003;73;615;-70
2022/03/11 08:24:52;;;;;;;;;;;24.20;37.80;;;;;;1592443;73;1093;-66
2022/03/11 08:26:54;;;;;;;;;;;24.10;37.80;;;;;;1595082;73;786;-68
2022/03/11 08:28:57;;;;;;;;;;;24.10;37.80;;;;;;1591091;73;749;-66
2022/03/11 08:30:59;;;;;;;;;;;24.10;37.70;;;;;;1590787;73;829;-68
2022/03/11 08:33:02;;;;;;;;;;;24.10;37.80;;;;;;1595140;73;1127;-66
2022/03/11 08:35:04;;;;;;;;;;;24.10;37.80;;;;;;1591986;73;776;-67
2022/03/11 08:37:06;;;;;;;;;;;24.20;37.70;;;;;;1595078;73;790;-64
2022/03/11 08:39:08;;;;;;;;;;;24.10;37.80;;;;;;1595076;73;702;-64
2022/03/11 08:41:10;;;;;;;;;;;24.10;37.80;;;;;;1594616;73;1944;-65
2022/03/11 08:43:12;;;;;;;;;;;24.10;37.70;;;;;;1587248;73;1143;-65
2022/03/11 08:45:14;;;;;;;;;;;24.20;37.80;;;;;;1590950;73;681;-64
2022/03/11 08:47:16;;;;;;;;;;;24.20;37.80;;;;;;1590751;73;779;-65
2022/03/11 08:49:17;;;;;;;;;;;24.10;37.80;;;;;;1590990;73;952;-70
2022/03/11 08:51:19;;;;;;;;;;;24.20;37.80;;;;;;1594216;73;730;-64
2022/03/11 08:53:21;;;;;;;;;;;24.20;37.80;;;;;;1590548;73;1116;-64
2022/03/11 08:55:23;;;;;;;;;;;24.20;37.80;;;;;;1587309;73;771;-64
2022/03/11 08:57:25;;;;;;;;;;;24.10;37.80;;;;;;1590807;73;669;-65
2022/03/11 08:59:27;;;;;;;;;;;24.20;37.80;;;;;;1595123;73;753;-63
2022/03/11 09:01:29;;;;;;;;;;;24.20;37.70;;;;;;1594934;73;1942;-65
2022/03/11 09:03:30;;;;;;;;;;;24.20;38.00;;;;;;1590918;73;1136;-67
2022/03/11 09:05:33;;;;;;;;;;;24.20;38.00;;;;;;1595080;73;787;-64
2022/03/11 09:07:35;;;;;;;;;;;24.10;38.00;;;;;;1594787;73;705;-66
2022/03/11 09:09:37;;;;;;;;;;;24.20;38.10;;;;;;1590887;73;770;-65
2022/03/11 09:11:39;;;;;;;;;;;24.10;38.10;;;;;;1593840;73;746;-63
2022/03/11 09:13:43;;;;;;;;;;;24.10;38.10;;;;;;1590371;73;1171;-64
2022/03/11 09:15:44;;;;;;;;;;;24.10;38.10;;;;;;1590236;73;1422;-64
2022/03/11 09:17:46;;;;;;;;;;;24.20;38.10;;;;;;1594894;73;752;-64
2022/03/11 09:19:48;;;;;;;;;;;24.10;38.10;;;;;;1592465;73;785;-63
2022/03/11 09:21:50;;;;;;;;;;;24.20;38.10;;;;;;1583259;73;1911;-63
2022/03/11 09:23:52;;;;;;;;;;;24.20;38.10;;;;;;1570719;74;1126;-63
2022/03/11 09:25:54;;;;;;;;;;;24.20;38.10;;;;;;1582855;73;758;-68
2022/03/11 09:27:56;;;;;;;;;;;24.20;37.90;;;;;;1589742;73;766;-67
2022/03/11 09:29:58;;;;;;;;;;;24.20;37.80;;;;;;1585721;73;700;-68
2022/03/11 09:32:00;;;;;;;;;;;24.30;37.70;;;;;;1577260;74;853;-68
2022/03/11 09:34:02;;;;;;;;;;;24.20;37.20;;;;;;1586366;74;1148;-68
2022/03/11 09:36:04;;;;;;;;;;;24.10;35.00;;;;;;1594617;74;771;-67
2022/03/11 09:38:06;;;;;;;;;;;24.00;33.90;;;;;;1589728;74;587;-69
2022/03/11 09:40:10;;;;;;;;;;;23.90;33.50;;;;;;1572431;74;1929;-67
2022/03/11 09:42:12;;;;;;;;;;;23.90;32.90;;;;;;1604706;73;694;-67
2022/03/11 09:44:14;;;;;;;;;;;23.90;32.40;;;;;;1570425;76;1098;-67
2022/03/11 09:46:16;;;;;;;;;;;23.80;31.10;;;;;;1570415;75;711;-67
2022/03/11 09:48:19;;;;;;;;;;;23.80;30.70;;;;;;1570541;76;678;-68
2022/03/11 09:50:20;;;;;;;;;;;23.70;31.50;;;;;;1593501;73;607;-68
2022/03/11 09:52:27;;;;;;;;;;;23.70;32.10;;;;;;1594083;73;787;-70
2022/03/11 09:54:26;;;;;;;;;;;23.80;32.40;;;;;;1588645;73;1127;-70
2022/03/11 09:56:29;;;;;;;;;;;23.80;32.30;;;;;;1592295;73;727;-72
2022/03/11 09:58:31;;;;;;;;;;;23.90;32.40;;;;;;1581355;74;727;-69
2022/03/11 10:00:33;;;;;;;;;;;23.80;32.50;;;;;;1569254;74;1938;-69
2022/03/11 10:02:34;;;;;;;;;;;23.90;32.70;;;;;;1580894;74;662;-70
2022/03/11 10:04:36;;;;;;;;;;;23.90;32.80;;;;;;1595154;74;1124;-69
2022/03/11 10:06:43;;;;;;;;;;;23.90;33.00;;;;;;1595114;73;709;-68
2022/03/11 10:08:46;;;;;;;;;;;24.00;33.10;;;;;;1568888;74;684;-69
2022/03/11 10:10:48;;;;;;;;;;;24.00;33.30;;;;;;1594874;74;768;-65
2022/03/11 10:12:51;;;;;;;;;;;24.10;33.40;;;;;;1594876;73;726;-66
2022/03/11 10:14:58;;;;;;;;;;;24.10;33.40;;;;;;1594914;73;1113;-69
2022/03/11 10:17:01;;;;;;;;;;;24.00;33.40;;;;;;1580124;73;1893;-71
2022/03/11 10:19:07;;;;;;;;;;;24.00;33.60;;;;;;1594515;73;711;-71
2022/03/11 10:21:09;;;;;;;;;;;24.10;33.80;;;;;;1579671;74;1930;-71
2022/03/11 10:23:11;;;;;;;;;;;24.20;33.70;;;;;;1568428;74;1122;-70
2022/03/11 10:25:16;;;;;;;;;;;24.10;33.80;;;;;;1569057;74;917;-71
2022/03/11 10:27:18;;;;;;;;;;;24.20;33.80;;;;;;1592623;74;692;-71
2022/03/11 10:29:24;;;;;;;;;;;24.20;33.90;;;;;;1595308;74;738;-70
2022/03/11 10:31:29;;;;;;;;;;;24.20;33.90;;;;;;1595017;74;681;-69
2022/03/11 10:33:31;;;;;;;;;;;24.20;34.00;;;;;;1567728;76;1166;-71
2022/03/11 10:35:37;;;;;;;;;;;24.20;34.10;;;;;;1567801;76;763;-70
2022/03/11 10:37:39;;;;;;;;;;;24.30;34.20;;;;;;1567689;76;683;-71
2022/03/11 10:39:41;;;;;;;;;;;24.20;34.10;;;;;;1569364;74;663;-70
2022/03/11 10:41:43;;;;;;;;;;;24.30;34.00;;;;;;1567728;73;1934;-69
2022/03/11 10:43:45;;;;;;;;;;;24.30;33.90;;;;;;1570237;76;1149;-71
2022/03/11 10:45:51;;;;;;;;;;;24.30;33.90;;;;;;1570331;76;730;-72
2022/03/11 10:47:53;;;;;;;;;;;24.30;34.00;;;;;;1581510;74;685;-72
2022/03/11 10:49:56;;;;;;;;;;;24.30;34.00;;;;;;1595495;74;711;-70
2022/03/11 10:51:59;;;;;;;;;;;24.30;34.10;;;;;;1595321;74;741;-71
2022/03/11 10:54:01;;;;;;;;;;;24.30;34.10;;;;;;1594469;74;1148;-70
2022/03/11 10:56:06;;;;;;;;;;;24.30;34.00;;;;;;1595303;74;727;-71
2022/03/11 10:58:08;;;;;;;;;;;24.30;34.10;;;;;;1595279;74;726;-70
2022/03/11 11:00:16;;;;;;;;;;;24.40;34.10;;;;;;1595039;73;735;-72
2022/03/11 11:02:18;;;;;;;;;;;24.40;34.10;;;;;;1594763;73;1925;-71
2022/03/11 11:04:20;;;;;;;;;;;24.40;34.10;;;;;;1582605;74;1138;-71
2022/03/11 11:06:22;;;;;;;;;;;24.40;34.00;;;;;;1595262;74;571;-71
2022/03/11 11:08:24;;;;;;;;;;;24.40;33.90;;;;;;1579008;74;744;-72
2022/03/11 11:10:27;;;;;;;;;;;24.50;34.00;;;;;;1567750;76;829;-70
2022/03/11 11:12:29;;;;;;;;;;;24.50;34.00;;;;;;1567726;74;682;-74
2022/03/11 11:14:31;;;;;;;;;;;24.50;34.00;;;;;;1567586;76;1150;-70
2022/03/11 11:16:38;;;;;;;;;;;24.50;34.00;;;;;;1569080;74;702;-69
2022/03/11 11:18:38;;;;;;;;;;;24.40;33.90;;;;;;1567499;73;1118;-69
2022/03/11 11:20:41;;;;;;;;;;;24.50;34.00;;;;;;1567729;76;798;-70
2022/03/11 11:22:44;;;;;;;;;;;24.50;34.00;;;;;;1575853;74;715;-70
2022/03/11 11:24:47;;;;;;;;;;;24.50;33.90;;;;;;1581586;74;1145;-74
2022/03/11 11:26:50;;;;;;;;;;;24.50;33.90;;;;;;1586221;74;719;-70
2022/03/11 11:28:54;;;;;;;;;;;24.50;33.90;;;;;;1595318;74;701;-71
2022/03/11 11:30:56;;;;;;;;;;;24.50;33.80;;;;;;1584528;73;1066;-71
2022/03/11 11:32:58;;;;;;;;;;;24.40;33.80;;;;;;1590617;73;755;-71
2022/03/11 11:35:01;;;;;;;;;;;24.40;34.00;;;;;;1593925;73;831;-71
2022/03/11 11:37:03;;;;;;;;;;;24.40;34.10;;;;;;1587815;73;1457;-71
2022/03/11 11:39:09;;;;;;;;;;;24.40;34.20;;;;;;1589203;74;711;-70
2022/03/11 11:41:21;;;;;;;;;;;24.40;34.30;;;;;;1580675;74;1938;-71
2022/03/11 11:43:27;;;;;;;;;;;24.40;34.40;;;;;;1593329;74;1139;-71
2022/03/11 11:45:46;;;;;;;;;;;24.30;34.60;;;;;;1593751;73;609;-72
2022/03/11 11:47:49;;;;;;;;;;;24.30;34.80;;;;;;1593668;73;734;-70
2022/03/11 11:49:55;;;;;;;;;;;24.30;35.10;;;;;;1594161;73;722;-74
2022/03/11 11:51:57;;;;;;;;;;;24.30;35.40;;;;;;1596141;73;690;-70
2022/03/11 11:54:08;;;;;;;;;;;24.30;35.70;;;;;;1578562;74;1100;-70
2022/03/11 11:56:21;;;;;;;;;;;24.30;35.80;;;;;;1565840;76;1116;-71
2022/03/11 11:58:23;;;;;;;;;;;24.30;35.80;;;;;;1567902;76;720;-71
2022/03/11 12:00:30;;;;;;;;;;;24.30;35.80;;;;;;1568066;76;777;-71
2022/03/11 12:02:34;;;;;;;;;;;24.30;35.80;;;;;;1567782;76;1910;-70
2022/03/11 12:04:36;;;;;;;;;;;24.30;35.80;;;;;;1598078;73;1216;-71
2022/03/11 12:07:00;;;;;;;;;;;24.40;35.70;;;;;;1595514;73;652;-69
2022/03/11 12:08:58;;;;;;;;;;;24.40;35.70;;;;;;1593644;73;1560;-72